createdAt,value
2023-07-25T00:02:00.150Z,2.90
2023-07-25T00:04:27.002Z,2.90
2023-07-25T00:06:53.792Z,3.10
2023-07-25T00:09:20.592Z,3.07
2023-07-25T00:11:47.972Z,2.53
2023-07-25T00:14:14.776Z,2.83
2023-07-25T00:16:41.628Z,3.30
2023-07-25T00:19:08.463Z,3.20
2023-07-25T00:21:35.684Z,3.20
2023-07-25T00:24:03.161Z,2.83
2023-07-25T00:26:29.973Z,3.53
2023-07-25T00:28:56.888Z,3.37
2023-07-25T00:31:23.770Z,3.37
2023-07-25T00:33:50.660Z,2.80
2023-07-25T00:36:17.512Z,3.17
2023-07-25T00:38:44.312Z,4.00
2023-07-25T00:41:11.147Z,2.97
2023-07-25T00:43:37.961Z,3.47
2023-07-25T00:46:05.717Z,3.13
2023-07-25T00:48:32.936Z,3.27
2023-07-25T00:50:59.945Z,3.07
2023-07-25T00:53:27.475Z,2.90
2023-07-25T00:55:54.344Z,3.07
2023-07-25T00:58:21.258Z,3.30
2023-07-25T01:00:48.173Z,3.00
2023-07-25T01:03:15.443Z,3.30
2023-07-25T01:05:48.321Z,3.40
2023-07-25T01:08:15.445Z,4.10
2023-07-25T01:10:42.303Z,4.10
2023-07-25T01:13:09.196Z,3.70
2023-07-25T01:15:37.229Z,3.40
2023-07-25T01:18:05.074Z,2.97
2023-07-25T01:20:33.168Z,4.03
2023-07-25T01:23:02.650Z,3.63
2023-07-25T01:25:29.688Z,3.87
2023-07-25T01:27:56.616Z,3.43
2023-07-25T01:30:23.562Z,4.10
2023-07-25T01:32:51.208Z,3.43
2023-07-25T01:35:18.025Z,3.57
2023-07-25T01:37:44.893Z,3.57
2023-07-25T01:40:12.563Z,3.47
2023-07-25T01:42:39.433Z,3.07
2023-07-25T01:45:07.168Z,3.60
2023-07-25T01:47:34.488Z,3.40
2023-07-25T01:50:01.330Z,3.30
2023-07-25T01:52:28.176Z,3.77
2023-07-25T01:54:55.040Z,3.67
2023-07-25T01:57:21.922Z,3.73
2023-07-25T01:59:48.988Z,3.47
2023-07-25T02:02:15.765Z,3.37
2023-07-25T02:04:42.624Z,3.60
2023-07-25T02:07:09.429Z,3.60
2023-07-25T02:09:36.390Z,3.90
2023-07-25T02:12:03.410Z,4.27
2023-07-25T02:14:30.237Z,3.97
2023-07-25T02:16:57.151Z,3.60
2023-07-25T02:19:24.178Z,4.30
2023-07-25T02:21:50.989Z,4.07
2023-07-25T02:24:17.906Z,3.80
2023-07-25T02:26:44.815Z,4.07
2023-07-25T02:29:11.618Z,3.80
2023-07-25T02:31:38.420Z,3.83
2023-07-25T02:34:05.201Z,3.73
2023-07-25T02:36:32.037Z,3.60
2023-07-25T02:38:58.870Z,3.70
2023-07-25T02:41:25.696Z,3.90
2023-07-25T02:43:52.518Z,3.77
2023-07-25T02:46:19.454Z,3.23
2023-07-25T02:48:46.304Z,3.50
2023-07-25T02:51:14.018Z,3.40
2023-07-25T02:53:40.818Z,3.57
2023-07-25T02:56:07.627Z,4.00
2023-07-25T02:58:34.512Z,4.83
2023-07-25T03:01:01.377Z,3.30
2023-07-25T03:03:28.386Z,3.47
2023-07-25T03:05:55.393Z,4.63
2023-07-25T03:08:22.619Z,4.40
2023-07-25T03:10:49.427Z,3.53
2023-07-25T03:13:16.906Z,3.57
2023-07-25T03:15:43.809Z,3.33
2023-07-25T03:18:10.743Z,3.60
2023-07-25T03:20:37.587Z,3.83
2023-07-25T03:23:04.432Z,4.10
2023-07-25T03:25:31.221Z,3.70
2023-07-25T03:27:58.395Z,3.57
2023-07-25T03:30:25.281Z,3.03
2023-07-25T03:32:52.192Z,3.50
2023-07-25T03:35:20.268Z,3.80
2023-07-25T03:37:47.044Z,4.43
2023-07-25T03:40:13.879Z,4.07
2023-07-25T03:42:40.845Z,3.90
2023-07-25T03:45:08.528Z,3.73
2023-07-25T03:47:35.397Z,3.90
2023-07-25T03:50:02.252Z,4.27
2023-07-25T03:52:29.126Z,3.70
2023-07-25T03:54:55.993Z,4.20
2023-07-25T03:57:22.884Z,4.00
2023-07-25T03:59:49.689Z,4.27
2023-07-25T04:02:16.597Z,4.70
2023-07-25T04:04:43.489Z,3.50
2023-07-25T04:07:10.454Z,4.13
2023-07-25T04:09:37.226Z,4.10
2023-07-25T04:12:04.428Z,4.63
2023-07-25T04:14:31.233Z,4.30
2023-07-25T04:16:58.193Z,3.83
2023-07-25T04:19:25.095Z,4.00
2023-07-25T04:21:51.956Z,3.80
2023-07-25T04:24:18.859Z,3.90
2023-07-25T04:26:45.690Z,4.27
2023-07-25T04:29:12.532Z,3.57
2023-07-25T04:31:39.317Z,4.20
2023-07-25T04:34:06.399Z,3.50
2023-07-25T04:36:33.378Z,3.33
2023-07-25T04:39:00.290Z,3.80
2023-07-25T04:41:27.176Z,4.17
2023-07-25T04:43:53.943Z,3.77
2023-07-25T04:46:20.879Z,3.87
2023-07-25T04:48:47.746Z,3.53
2023-07-25T04:51:14.572Z,3.43
2023-07-25T04:53:41.473Z,3.47
2023-07-25T04:56:08.325Z,3.40
2023-07-25T04:58:39.478Z,3.40
2023-07-25T05:01:06.413Z,3.80
2023-07-25T05:03:33.358Z,3.63
2023-07-25T05:06:00.289Z,3.00
2023-07-25T05:08:27.093Z,4.00
2023-07-25T05:10:54.943Z,3.77
2023-07-25T05:13:21.860Z,3.43
2023-07-25T05:15:49.237Z,3.43
2023-07-25T05:18:16.161Z,3.33
2023-07-25T05:20:43.321Z,3.53
2023-07-25T05:23:10.132Z,4.13
2023-07-25T05:25:36.927Z,3.80
2023-07-25T05:28:03.849Z,3.90
2023-07-25T05:30:30.664Z,3.60
2023-07-25T05:32:57.558Z,3.50
2023-07-25T05:35:24.608Z,3.77
2023-07-25T05:37:51.489Z,3.30
2023-07-25T05:40:18.340Z,4.20
2023-07-25T05:42:45.132Z,4.00
2023-07-25T05:45:11.969Z,3.53
2023-07-25T05:47:38.825Z,3.67
2023-07-25T05:50:06.596Z,4.80
2023-07-25T05:52:33.414Z,5.00
2023-07-25T05:55:00.374Z,3.60
2023-07-25T05:57:27.210Z,3.97
2023-07-25T05:59:54.049Z,4.80
2023-07-25T06:02:20.862Z,3.90
2023-07-25T06:04:47.775Z,3.63
2023-07-25T06:07:17.993Z,3.37
2023-07-25T06:09:44.775Z,4.27
2023-07-25T06:12:11.829Z,4.13
2023-07-25T06:14:38.624Z,4.50
2023-07-25T06:17:05.649Z,3.83
2023-07-25T06:19:32.537Z,4.10
2023-07-25T06:21:59.399Z,4.13
2023-07-25T06:24:26.389Z,3.90
2023-07-25T06:26:53.290Z,3.60
2023-07-25T06:29:20.105Z,4.47
2023-07-25T06:31:46.975Z,3.97
2023-07-25T06:34:13.786Z,4.10
2023-07-25T06:36:40.603Z,3.80
2023-07-25T06:39:07.440Z,4.13
2023-07-25T06:41:34.687Z,3.07
2023-07-25T06:44:01.738Z,3.43
2023-07-25T06:46:28.641Z,3.60
2023-07-25T06:48:55.658Z,3.47
2023-07-25T06:51:22.525Z,3.20
2023-07-25T06:53:49.374Z,3.00
2023-07-25T06:56:16.421Z,2.50
2023-07-25T06:58:43.377Z,2.73
2023-07-25T07:01:10.276Z,2.90
2023-07-25T07:03:37.211Z,2.77
2023-07-25T07:06:04.172Z,2.37
2023-07-25T07:08:31.036Z,2.77
2023-07-25T07:10:57.883Z,3.17
2023-07-25T07:13:24.886Z,2.60
2023-07-25T07:15:53.234Z,2.43
2023-07-25T07:18:20.247Z,2.47
2023-07-25T07:20:49.491Z,2.53
2023-07-25T07:23:17.644Z,2.50
2023-07-25T07:25:45.071Z,2.57
2023-07-25T07:28:12.988Z,2.53
2023-07-25T07:30:40.330Z,2.57
2023-07-25T07:33:07.261Z,3.10
2023-07-25T07:35:35.122Z,2.83
2023-07-25T07:38:01.932Z,2.70
2023-07-25T07:40:29.916Z,2.97
2023-07-25T07:42:56.939Z,2.50
2023-07-25T07:45:25.131Z,2.63
2023-07-25T07:47:52.939Z,2.70
2023-07-25T07:50:20.530Z,2.60
2023-07-25T07:52:47.768Z,2.60
2023-07-25T07:55:15.247Z,2.60
2023-07-25T07:57:47.340Z,3.20
2023-07-25T08:00:15.883Z,3.00
2023-07-25T08:02:43.851Z,2.40
2023-07-25T08:05:12.068Z,2.13
2023-07-25T08:07:39.296Z,2.43
2023-07-25T08:10:07.345Z,2.70
2023-07-25T08:12:34.713Z,2.93
2023-07-25T08:15:01.540Z,2.63
2023-07-25T08:17:28.509Z,2.30
2023-07-25T08:19:55.360Z,1.80
2023-07-25T08:22:22.627Z,1.97
2023-07-25T08:24:53.543Z,2.10
2023-07-25T08:27:20.870Z,1.77
2023-07-25T08:29:48.102Z,1.87
2023-07-25T08:32:16.004Z,1.80
2023-07-25T08:34:43.110Z,2.00
2023-07-25T08:37:10.108Z,1.50
2023-07-25T08:39:36.984Z,1.53
2023-07-25T08:42:08.187Z,1.70
2023-07-25T08:44:38.973Z,1.60
2023-07-25T08:47:16.742Z,2.57
2023-07-25T08:49:47.875Z,1.80
2023-07-25T08:52:18.283Z,1.73
2023-07-25T08:54:47.071Z,1.53
2023-07-25T08:57:14.930Z,1.50
2023-07-25T08:59:42.666Z,1.20
2023-07-25T09:02:11.540Z,1.97
2023-07-25T09:04:38.869Z,1.97
2023-07-25T09:07:06.958Z,1.73
2023-07-25T09:09:33.772Z,2.03
2023-07-25T09:12:00.578Z,1.37
2023-07-25T09:14:28.658Z,1.57
2023-07-25T09:16:55.561Z,1.47
2023-07-25T09:19:22.442Z,1.57
2023-07-25T09:21:51.578Z,1.40
2023-07-25T09:24:18.808Z,1.53
2023-07-25T09:26:53.076Z,1.60
2023-07-25T09:29:21.979Z,1.73
2023-07-25T09:31:49.029Z,1.80
2023-07-25T09:34:18.992Z,1.70
2023-07-25T09:36:48.186Z,1.77
2023-07-25T09:39:16.355Z,1.90
2023-07-25T09:41:44.151Z,1.90
2023-07-25T09:44:10.987Z,1.60
2023-07-25T09:46:37.964Z,1.67
2023-07-25T09:49:04.902Z,1.80
2023-07-25T09:51:32.507Z,1.80
2023-07-25T09:53:59.539Z,1.80
2023-07-25T09:56:27.557Z,2.13
2023-07-25T10:01:25.528Z,2.27
2023-07-25T10:03:54.233Z,2.23
2023-07-25T10:06:21.910Z,2.93
2023-07-25T10:08:49.166Z,2.30
2023-07-25T10:14:10.502Z,1.70
2023-07-25T10:16:39.066Z,2.23
2023-07-25T10:19:07.123Z,1.80
2023-07-25T10:21:54.278Z,1.60
2023-07-25T10:24:22.365Z,1.90
2023-07-25T10:26:54.409Z,2.00
2023-07-25T10:29:49.321Z,1.83
2023-07-25T10:32:17.749Z,1.90
2023-07-25T10:35:01.484Z,1.70
2023-07-25T10:37:37.680Z,2.20
2023-07-25T10:40:06.100Z,2.13
2023-07-25T10:43:04.366Z,2.00
2023-07-25T10:45:47.633Z,1.53
2023-07-25T10:48:30.399Z,1.83
2023-07-25T10:50:58.157Z,2.13
2023-07-25T10:53:25.857Z,1.77
2023-07-25T10:56:13.741Z,1.87
2023-07-25T10:59:04.625Z,1.70
2023-07-25T11:01:34.005Z,1.60
2023-07-25T11:04:20.498Z,1.67
2023-07-25T11:06:55.327Z,1.93
2023-07-25T11:09:23.054Z,1.80
2023-07-25T11:11:52.025Z,1.83
2023-07-25T11:14:20.093Z,1.50
2023-07-25T11:16:49.624Z,1.80
2023-07-25T11:19:16.607Z,2.03
2023-07-25T11:21:46.018Z,1.70
2023-07-25T11:24:13.362Z,1.93
2023-07-25T11:26:40.531Z,1.80
2023-07-25T11:29:11.981Z,1.43
2023-07-25T11:31:45.057Z,1.83
2023-07-25T11:34:16.373Z,2.20
2023-07-25T11:36:45.102Z,1.67
2023-07-25T11:39:13.122Z,2.03
2023-07-25T11:41:40.883Z,1.80
2023-07-25T11:44:12.292Z,2.03
2023-07-25T11:46:41.834Z,1.70
2023-07-25T11:49:09.959Z,1.70
2023-07-25T11:51:38.291Z,1.90
2023-07-25T11:54:06.241Z,2.30
2023-07-25T11:56:36.977Z,1.87
2023-07-25T11:59:04.566Z,1.60
2023-07-25T12:01:33.999Z,1.20
2023-07-25T12:04:04.275Z,1.80
2023-07-25T12:06:33.323Z,1.40
2023-07-25T12:09:02.199Z,2.10
2023-07-25T12:11:30.398Z,1.40
2023-07-25T12:13:59.008Z,1.50
2023-07-25T12:16:30.664Z,1.50
2023-07-25T12:19:12.955Z,1.90
2023-07-25T12:21:43.194Z,1.70
2023-07-25T12:24:12.233Z,1.83
2023-07-25T12:26:57.793Z,1.47
2023-07-25T12:29:26.266Z,1.57
2023-07-25T12:31:54.166Z,1.80
2023-07-25T12:34:22.188Z,1.70
2023-07-25T12:36:52.579Z,1.50
2023-07-25T12:39:21.223Z,1.43
2023-07-25T12:41:48.252Z,1.60
2023-07-25T12:44:15.131Z,1.20
2023-07-25T12:46:42.000Z,1.57
2023-07-25T12:49:08.918Z,1.30
2023-07-25T12:51:36.135Z,1.70
2023-07-25T12:54:03.356Z,1.40
2023-07-25T12:56:30.633Z,1.70
2023-07-25T12:58:57.892Z,1.70
2023-07-25T13:01:25.719Z,1.87
2023-07-25T13:03:53.038Z,1.80
2023-07-25T13:06:20.241Z,1.63
2023-07-25T13:08:47.306Z,1.53
2023-07-25T13:11:14.273Z,1.20
2023-07-25T13:13:41.257Z,1.50
2023-07-25T13:16:08.184Z,1.53
2023-07-25T13:18:35.291Z,1.60
2023-07-25T13:21:02.412Z,1.60
2023-07-25T13:23:29.381Z,1.87
2023-07-25T13:25:56.476Z,1.60
2023-07-25T13:28:23.766Z,2.00
2023-07-25T13:30:51.660Z,1.70
2023-07-25T13:33:18.514Z,1.80
2023-07-25T13:35:45.517Z,1.87
2023-07-25T13:38:12.349Z,1.47
2023-07-25T13:40:39.162Z,1.50
2023-07-25T13:43:06.026Z,1.60
2023-07-25T13:45:49.895Z,1.60
2023-07-25T13:48:19.298Z,1.70
2023-07-25T13:50:53.933Z,1.60
2023-07-25T13:53:22.148Z,1.67
2023-07-25T13:55:48.982Z,1.60
2023-07-25T14:00:45.900Z,1.50
2023-07-25T14:03:12.895Z,1.57
2023-07-25T14:05:39.898Z,1.40
2023-07-25T14:08:08.807Z,1.57
2023-07-25T14:10:37.829Z,1.60
2023-07-25T14:13:05.236Z,1.90
2023-07-25T14:15:33.234Z,1.83
2023-07-25T14:18:01.822Z,1.40
2023-07-25T14:20:29.751Z,1.40
2023-07-25T14:22:56.728Z,1.10
2023-07-25T14:25:24.006Z,1.00
2023-07-25T14:27:51.092Z,1.33
2023-07-25T14:30:18.235Z,1.13
2023-07-25T14:32:45.274Z,1.40
2023-07-25T14:35:12.417Z,1.47
2023-07-25T14:37:48.929Z,1.27
2023-07-25T14:40:22.961Z,1.15
2023-07-25T14:42:49.948Z,1.40
2023-07-25T14:45:17.134Z,1.33
2023-07-25T14:47:44.436Z,1.47
2023-07-25T14:50:11.797Z,1.90
2023-07-25T14:52:38.841Z,1.90
2023-07-25T14:55:07.386Z,2.07
2023-07-25T14:57:34.532Z,1.53
2023-07-25T15:00:01.555Z,1.63
2023-07-25T15:02:28.957Z,1.70
2023-07-25T15:04:56.376Z,1.63
2023-07-25T15:07:23.289Z,1.60
2023-07-25T15:09:50.456Z,1.60
2023-07-25T15:12:17.674Z,1.60
2023-07-25T15:14:44.786Z,1.63
2023-07-25T15:17:20.166Z,1.90
2023-07-25T15:19:47.203Z,2.20
2023-07-25T15:22:14.263Z,1.50
2023-07-25T15:24:41.494Z,1.80
2023-07-25T15:27:08.629Z,1.70
2023-07-25T15:29:35.634Z,1.73
2023-07-25T15:32:06.255Z,1.65
2023-07-25T15:34:33.381Z,2.03
2023-07-25T15:37:00.518Z,1.60
2023-07-25T15:39:29.581Z,1.60
2023-07-25T15:41:59.740Z,1.90
2023-07-25T15:44:27.802Z,1.90
2023-07-25T15:46:58.170Z,2.00
2023-07-25T15:49:25.519Z,2.40
2023-07-25T15:51:52.610Z,1.40
2023-07-25T15:54:19.416Z,2.10
2023-07-25T15:56:46.360Z,1.90
2023-07-25T15:59:14.956Z,2.50
2023-07-25T16:01:42.592Z,2.55
2023-07-25T16:04:09.676Z,2.30
2023-07-25T16:06:36.723Z,1.80
2023-07-25T16:09:04.095Z,1.43
2023-07-25T16:11:31.139Z,1.60
2023-07-25T16:13:58.202Z,1.70
2023-07-25T16:16:25.039Z,1.80
2023-07-25T16:18:51.943Z,1.80
2023-07-25T16:21:18.784Z,2.13
2023-07-25T16:23:45.644Z,1.93
2023-07-25T16:26:12.585Z,1.90
2023-07-25T16:28:39.448Z,2.10
2023-07-25T16:31:28.622Z,2.13
2023-07-25T16:33:53.414Z,2.37
2023-07-25T16:36:20.300Z,1.80
2023-07-25T16:38:47.098Z,1.80
2023-07-25T16:41:14.030Z,2.00
2023-07-25T16:43:40.834Z,2.27
2023-07-25T16:46:07.641Z,1.80
2023-07-25T16:48:34.586Z,2.53
2023-07-25T16:51:01.418Z,2.00
2023-07-25T16:53:28.199Z,1.70
2023-07-25T16:55:55.125Z,2.13
2023-07-25T16:58:21.919Z,2.00
2023-07-25T17:00:52.139Z,1.90
2023-07-25T17:03:19.404Z,1.83
2023-07-25T17:05:46.366Z,2.10
2023-07-25T17:08:13.158Z,1.90
2023-07-25T17:10:40.106Z,2.27
2023-07-25T17:13:06.952Z,1.90
2023-07-25T17:15:34.799Z,2.13
2023-07-25T17:18:01.732Z,2.27
2023-07-25T17:20:28.612Z,2.33
2023-07-25T17:22:56.379Z,2.30
2023-07-25T17:25:23.372Z,2.33
2023-07-25T17:27:55.022Z,2.10
2023-07-25T17:30:22.531Z,2.03
2023-07-25T17:32:49.828Z,2.17
2023-07-25T17:35:23.883Z,2.37
2023-07-25T17:37:55.443Z,1.97
2023-07-25T17:40:22.313Z,2.37
2023-07-25T17:42:49.180Z,2.20
2023-07-25T17:45:16.155Z,2.43
2023-07-25T17:47:43.027Z,2.07
2023-07-25T17:50:10.240Z,2.00
2023-07-25T17:52:37.341Z,2.17
2023-07-25T17:55:04.513Z,2.43
2023-07-25T17:57:31.535Z,1.93
2023-07-25T17:59:58.441Z,2.27
2023-07-25T18:02:25.740Z,2.07
2023-07-25T18:04:52.980Z,2.20
2023-07-25T18:07:19.783Z,2.10
2023-07-25T18:09:46.976Z,2.00
2023-07-25T18:12:14.220Z,2.27
2023-07-25T18:14:41.240Z,2.40
2023-07-25T18:17:08.105Z,2.50
2023-07-25T18:19:35.150Z,2.03
2023-07-25T18:22:01.980Z,2.40
2023-07-25T18:24:28.831Z,2.37
2023-07-25T18:26:55.830Z,2.20
2023-07-25T18:29:22.639Z,2.03
2023-07-25T18:31:49.465Z,2.20
2023-07-25T18:34:16.388Z,2.30
2023-07-25T18:36:43.287Z,1.80
2023-07-25T18:39:12.780Z,2.13
2023-07-25T18:41:41.957Z,2.37
2023-07-25T18:44:08.924Z,2.00
2023-07-25T18:46:35.917Z,2.17
2023-07-25T18:49:02.998Z,2.20
2023-07-25T18:51:29.930Z,1.90
2023-07-25T18:53:56.814Z,2.00
2023-07-25T18:56:23.776Z,2.07
2023-07-25T18:58:50.674Z,2.30
2023-07-25T19:01:17.577Z,2.37
2023-07-25T19:03:44.578Z,2.37
2023-07-25T19:06:11.606Z,2.50
2023-07-25T19:08:38.485Z,2.80
2023-07-25T19:11:05.431Z,2.13
2023-07-25T19:13:33.162Z,2.20
2023-07-25T19:15:59.986Z,2.40
2023-07-25T19:18:26.992Z,2.77
2023-07-25T19:20:53.928Z,2.70
2023-07-25T19:23:26.678Z,3.20
2023-07-25T19:26:02.033Z,2.30
2023-07-25T19:28:29.752Z,2.87
2023-07-25T19:30:58.838Z,2.53
2023-07-25T19:33:28.784Z,2.83
2023-07-25T19:35:58.079Z,2.90
2023-07-25T19:38:27.591Z,3.00
2023-07-25T19:40:55.111Z,2.80
2023-07-25T19:43:22.212Z,3.13
2023-07-25T19:45:49.255Z,3.07
2023-07-25T19:48:17.459Z,2.90
2023-07-25T19:50:46.942Z,2.90
2023-07-25T19:53:14.700Z,2.77
2023-07-25T19:55:44.555Z,3.00
2023-07-25T19:58:12.432Z,3.17
2023-07-25T20:00:41.399Z,3.13
2023-07-25T20:03:08.262Z,3.37
2023-07-25T20:05:35.117Z,2.93
2023-07-25T20:08:02.064Z,3.57
2023-07-25T20:10:29.026Z,3.30
2023-07-25T20:12:55.925Z,3.10
2023-07-25T20:15:22.761Z,2.83
2023-07-25T20:17:49.619Z,2.93
2023-07-25T20:20:16.660Z,3.00
2023-07-25T20:22:43.500Z,3.17
2023-07-25T20:25:13.428Z,3.27
2023-07-25T20:27:40.446Z,3.10
2023-07-25T20:30:07.945Z,3.20
2023-07-25T20:32:34.987Z,2.80
2023-07-25T20:35:02.057Z,2.47
2023-07-25T20:37:29.198Z,3.30
2023-07-25T20:39:56.600Z,3.07
2023-07-25T20:42:23.931Z,3.20
2023-07-25T20:44:52.208Z,2.90
2023-07-25T20:47:19.062Z,3.17
2023-07-25T20:49:46.380Z,3.20
2023-07-25T20:52:13.356Z,3.43
2023-07-25T20:54:43.017Z,3.20
2023-07-25T20:57:09.861Z,3.20
2023-07-25T20:59:36.654Z,3.77
2023-07-25T21:02:03.776Z,2.90
2023-07-25T21:04:30.615Z,2.90
2023-07-25T21:06:57.505Z,3.40
2023-07-25T21:09:24.376Z,3.33
2023-07-25T21:11:51.229Z,2.90
2023-07-25T21:14:18.073Z,3.30
2023-07-25T21:16:45.137Z,3.37
2023-07-25T21:19:12.127Z,3.40
2023-07-25T21:21:38.978Z,3.43
2023-07-25T21:24:06.295Z,3.30
2023-07-25T21:26:33.385Z,3.50
2023-07-25T21:29:00.624Z,3.70
2023-07-25T21:31:27.659Z,3.93
2023-07-25T21:33:58.114Z,3.93
2023-07-25T21:36:27.113Z,3.40
2023-07-25T21:38:55.849Z,3.90
2023-07-25T21:41:23.622Z,3.50
2023-07-25T21:43:50.791Z,4.77
2023-07-25T21:46:17.725Z,3.73
2023-07-25T21:48:44.630Z,3.93
2023-07-25T21:51:11.522Z,3.60
2023-07-25T21:53:38.688Z,3.93
2023-07-25T21:56:05.570Z,4.10
2023-07-25T21:58:32.414Z,3.83
2023-07-25T22:00:59.847Z,3.80
2023-07-25T22:03:31.489Z,3.70
2023-07-25T22:06:00.142Z,3.70
2023-07-25T22:08:27.167Z,4.70
2023-07-25T22:10:55.516Z,4.27
2023-07-25T22:13:23.111Z,3.80
2023-07-25T22:15:49.963Z,4.33
2023-07-25T22:18:16.828Z,3.73
2023-07-25T22:20:51.742Z,3.77
2023-07-25T22:23:20.643Z,3.97
2023-07-25T22:25:47.498Z,3.67
2023-07-25T22:28:14.365Z,4.30
2023-07-25T22:30:41.318Z,4.30
2023-07-25T22:33:08.196Z,4.73
2023-07-25T22:35:36.002Z,4.77
2023-07-25T22:38:04.283Z,4.20
2023-07-25T22:40:31.203Z,4.03
2023-07-25T22:42:58.076Z,3.90
2023-07-25T22:45:26.578Z,3.93
2023-07-25T22:47:53.844Z,4.63
2023-07-25T22:50:20.658Z,4.90
2023-07-25T22:52:47.768Z,4.07
2023-07-25T22:55:16.414Z,4.27
2023-07-25T22:57:44.185Z,4.60
2023-07-25T23:00:11.831Z,4.53
2023-07-25T23:02:38.816Z,4.30
2023-07-25T23:05:06.697Z,4.13
2023-07-25T23:07:33.509Z,4.80
2023-07-25T23:10:00.323Z,4.03
2023-07-25T23:12:27.156Z,5.20
2023-07-25T23:14:54.111Z,4.17
2023-07-25T23:17:20.889Z,4.43
2023-07-25T23:19:47.783Z,5.47
2023-07-25T23:22:14.823Z,4.93
2023-07-25T23:24:41.743Z,4.70
2023-07-25T23:27:08.642Z,3.83
2023-07-25T23:29:36.546Z,4.73
2023-07-25T23:32:03.774Z,4.33
2023-07-25T23:34:48.263Z,4.67
2023-07-25T23:37:15.536Z,4.60
2023-07-25T23:39:42.386Z,4.10
2023-07-25T23:42:09.321Z,4.63
2023-07-25T23:44:36.385Z,4.47
2023-07-25T23:47:05.554Z,4.30
2023-07-25T23:49:34.787Z,4.37
2023-07-25T23:52:01.835Z,4.60
2023-07-25T23:54:28.712Z,4.30
2023-07-25T23:56:55.558Z,6.33
2023-07-25T23:59:22.403Z,4.50
